KGCC/GCC METAR and TAF weather

Enter ICAO airport designator
Station Type Date Time Source
KGCC METAR 2018/12/17 03:53 UTC NOAA

KGCC 170353Z AUTO 22018KT 10SM CLR 06/M06 A3005 RMK AO2 SLP187 T00611061


Station Type Date Time Source
KGCC Decoded METAR 2018/12/17 03:53 UTC NOAA

GILLETTE-CAMPBELL CTY AIRPORT , WY, United States (KGCC) 44-20N 105-33W 1320M
Dec 16, 2018 - 10:53 PM EST / 2018.12.17 0353 UTC
Wind: from the SW (220 degrees) at 21 MPH (18 KT):0
Visibility: 10 mile(s):0
Sky conditions: clear
Temperature: 43.0 F (6.1 C)
Dew Point: 21.0 F (-6.1 C)
Relative Humidity: 41%
Pressure (altimeter): 30.05 in. Hg (1017 hPa)
ob: KGCC 170353Z AUTO 22018KT 10SM CLR 06/M06 A3005 RMK AO2 SLP187 T00611061
cycle: 4

Station Type Date Time Source
KGCC TAF 2018/12/16 18:22 UTC NOAA

TAF KGCC 161720Z 1618/1718 17012KT P6SM SCT200
FM170600 20018G28KT P6SM SCT200
FM171200 21014KT P6SM SCT200


Example: see airport list